Main page
METAR-TAF:

METAR-TAF

Airports :

Copenhagen Airport

Copenhagen, Denmark

latitude: 55-37N, longitude: 012-39E, elevation: 5 m

Current weather observation

The report was made 26 minutes ago, at 06:20 UTC
Wind 9 kt from the West/Southwest
Temperature 17°C
Humidity 82%
Pressure 1019 hPa
Visibility 10 km or more
Few clouds at a height of 2500 ft

METAR: EKCH 180620Z 25009KT 9999 FEW025 17/14 Q1019 NOSIG

Time: 08:46 (06:46 UTC)

Forecast

The report was made 1 hour and 43 minutes ago, at 05:03 UTC
Forecast valid from 18 at 06 UTC to 19 at 06 UTC
Wind 5 kt from the West
Visibility 10 km or more
Few clouds at a height of 3500 ft
Becoming
from 18 at 09 UTC to 18 at 12 UTC
Wind 15 kt from the Southwest

TAF: EKCH 180503Z 1806/1906 26005KT 9999 FEW035 BECMG 1809/1812 22015KT

Weather observations and forecasts of more than 4000 airports (METAR and TAF reports).

The available stations are represented by yellow and red dots on the map.

Hover mouse over dot to see the name of the station.

Then click to see weather observations and forecasts.

To change the map : click on the green buttons with a black cross to zoom in, on the green button with a dash to zoom out, or on the green arrows for adjacent maps.


METAR-TAF: